createdAt,value
2023-05-24T09:01:34.778Z,18.41
2023-05-24T09:06:41.020Z,18.41
2023-05-24T09:11:46.190Z,17.51
2023-05-24T09:16:52.049Z,17.23
2023-05-24T09:21:57.457Z,17.23
2023-05-24T09:27:07.107Z,17.38
2023-05-24T09:32:12.257Z,17.97
2023-05-24T09:37:16.874Z,18.53
2023-05-24T09:42:24.418Z,18.91
2023-05-24T09:47:31.230Z,18.70
2023-05-24T09:52:37.792Z,19.66
2023-05-24T09:57:41.695Z,19.59
2023-05-24T10:02:53.321Z,19.60
2023-05-24T10:07:58.976Z,20.44
2023-05-24T10:13:03.980Z,21.12
2023-05-24T10:18:12.227Z,21.38
2023-05-24T10:23:22.151Z,21.28
2023-05-24T10:28:27.253Z,21.04
2023-05-24T10:33:36.023Z,20.91
2023-05-24T10:38:41.050Z,21.17
2023-05-24T10:44:00.926Z,21.86
2023-05-24T10:49:15.145Z,21.76
2023-05-24T10:54:20.109Z,21.71
2023-05-24T10:59:26.057Z,21.16
2023-05-24T11:04:37.742Z,20.65
2023-05-24T11:09:46.303Z,20.35
2023-05-24T11:14:52.341Z,20.46
2023-05-24T11:19:57.918Z,20.25
2023-05-24T11:25:06.111Z,20.10
2023-05-24T11:30:10.748Z,19.74
2023-05-24T11:35:16.100Z,19.42
2023-05-24T11:40:20.379Z,19.22
2023-05-24T11:45:24.317Z,19.14
2023-05-24T11:50:33.145Z,18.97
2023-05-24T11:55:43.587Z,18.84
2023-05-24T12:00:48.955Z,18.86
2023-05-24T12:05:58.287Z,18.98
2023-05-24T12:11:02.987Z,19.10
2023-05-24T12:16:07.289Z,19.13
2023-05-24T12:21:13.001Z,19.15
2023-05-24T12:26:20.253Z,19.15
2023-05-24T12:31:24.076Z,19.01
2023-05-24T12:36:31.524Z,18.99
2023-05-24T12:41:35.260Z,18.98
2023-05-24T12:46:39.149Z,18.94
2023-05-24T12:51:44.938Z,19.12
2023-05-24T12:56:50.642Z,19.28
2023-05-24T13:01:55.028Z,19.40
2023-05-24T13:07:00.438Z,19.48
2023-05-24T13:12:05.921Z,19.51
2023-05-24T13:17:09.941Z,19.97
2023-05-24T13:22:15.477Z,20.40
2023-05-24T13:27:19.469Z,20.80
2023-05-24T13:32:23.550Z,21.76
2023-05-24T13:37:28.910Z,22.04
2023-05-24T13:42:32.762Z,21.74
2023-05-24T13:47:40.363Z,21.38
2023-05-24T13:52:46.401Z,21.26
2023-05-24T13:57:52.097Z,21.15
2023-05-24T14:02:56.516Z,20.95
2023-05-24T14:08:06.373Z,20.88
2023-05-24T14:18:16.914Z,20.79
2023-05-24T14:23:22.047Z,20.67
2023-05-24T14:28:25.903Z,20.44
2023-05-24T14:33:29.763Z,20.58
2023-05-24T14:38:34.910Z,20.38
2023-05-24T14:43:40.353Z,20.03
2023-05-24T14:48:44.368Z,19.99
2023-05-24T14:53:49.530Z,19.94
2023-05-24T14:58:55.038Z,19.76
2023-05-24T15:03:59.155Z,20.02
2023-05-24T15:09:04.772Z,20.12
2023-05-24T15:14:08.523Z,19.98
2023-05-24T15:19:13.116Z,20.12
2023-05-24T15:24:18.358Z,20.23
2023-05-24T15:29:22.474Z,20.47
2023-05-24T15:34:26.229Z,20.82
2023-05-24T15:39:31.436Z,20.87
2023-05-24T15:44:35.182Z,20.85
2023-05-24T15:49:40.255Z,21.08
2023-05-24T15:54:46.079Z,22.21
2023-05-24T15:59:49.863Z,23.21
2023-05-24T16:04:54.286Z,23.98
2023-05-24T16:09:59.618Z,24.64
2023-05-24T16:15:03.781Z,24.54
2023-05-24T16:20:08.728Z,23.89
2023-05-24T16:25:13.937Z,23.54
2023-05-24T16:30:17.693Z,23.46
2023-05-24T16:35:21.513Z,23.07
2023-05-24T16:40:28.349Z,23.42
2023-05-24T16:45:32.146Z,23.22
2023-05-24T16:50:36.303Z,23.14
2023-05-24T16:55:41.462Z,23.28
2023-05-24T17:00:45.310Z,23.35
2023-05-24T17:05:50.302Z,23.32
2023-05-24T17:10:57.107Z,22.73
2023-05-24T17:16:01.077Z,22.28
2023-05-24T17:21:06.072Z,21.74
2023-05-24T17:26:14.680Z,21.26
2023-05-24T17:31:18.624Z,21.16
2023-05-24T17:36:22.419Z,20.94
2023-05-24T17:41:27.574Z,20.63
2023-05-24T17:46:33.508Z,20.25
2023-05-24T17:51:38.995Z,19.91
2023-05-24T17:56:44.142Z,19.60
2023-05-24T18:01:48.178Z,19.42
2023-05-24T18:06:51.953Z,19.08
2023-05-24T18:11:57.719Z,18.92
2023-05-24T18:17:01.500Z,18.83
2023-05-24T18:22:05.955Z,18.55
2023-05-24T18:27:11.068Z,18.45
2023-05-24T18:32:14.909Z,18.43
2023-05-24T18:37:19.798Z,18.11
2023-05-24T18:42:24.945Z,18.13
2023-05-24T18:47:31.022Z,18.03
2023-05-24T18:52:34.852Z,17.93
2023-05-24T18:57:40.077Z,17.91
2023-05-24T19:02:43.928Z,17.85
2023-05-24T19:07:48.046Z,17.64
2023-05-24T19:12:53.138Z,17.56
2023-05-24T19:17:57.909Z,17.45
2023-05-24T19:23:01.849Z,17.40
2023-05-24T19:28:07.286Z,17.34
2023-05-24T19:33:11.581Z,17.22
2023-05-24T19:38:17.646Z,17.11
2023-05-24T19:43:22.951Z,16.91
2023-05-24T19:48:27.113Z,16.88
2023-05-24T19:53:30.963Z,16.73
2023-05-24T19:58:36.142Z,16.66
2023-05-24T20:03:39.999Z,16.66
2023-05-24T20:08:44.064Z,16.58
2023-05-24T20:13:50.008Z,16.52
2023-05-24T20:18:54.290Z,16.42
2023-05-24T20:23:58.281Z,16.39
2023-05-24T20:29:04.234Z,16.30
2023-05-24T20:34:08.042Z,16.19
2023-05-24T20:39:12.227Z,16.11
2023-05-24T20:44:17.431Z,15.96
2023-05-24T20:49:21.316Z,15.75
2023-05-24T20:54:25.109Z,15.72
2023-05-24T20:59:30.455Z,15.57
2023-05-24T21:04:34.263Z,15.50
2023-05-24T21:09:37.980Z,15.44
2023-05-24T21:14:43.361Z,15.28
2023-05-24T21:19:47.162Z,15.23
2023-05-24T21:24:50.923Z,15.18
2023-05-24T21:29:56.140Z,15.11
2023-05-24T21:34:59.929Z,15.06
2023-05-24T21:40:05.122Z,15.01
2023-05-24T21:45:11.408Z,14.88
2023-05-24T21:50:15.294Z,14.79
2023-05-24T21:55:19.141Z,14.77
2023-05-24T22:00:24.690Z,14.73
2023-05-24T22:05:28.493Z,14.66
2023-05-24T22:10:32.274Z,14.60
2023-05-24T22:15:37.407Z,14.49
2023-05-24T22:20:41.202Z,14.44
2023-05-24T22:25:45.208Z,14.35
2023-05-24T22:30:50.404Z,14.23
2023-05-24T22:35:54.110Z,14.16
2023-05-24T22:40:57.884Z,14.05
2023-05-24T22:46:03.044Z,14.01
2023-05-24T22:51:07.588Z,13.90
2023-05-24T22:56:11.430Z,13.79
2023-05-24T23:01:17.328Z,13.66
2023-05-24T23:06:21.252Z,13.62
2023-05-24T23:11:26.397Z,13.58
2023-05-24T23:16:34.168Z,13.50
2023-05-24T23:21:38.013Z,13.41
2023-05-24T23:26:41.889Z,13.31
2023-05-24T23:31:47.000Z,13.23
2023-05-24T23:36:50.780Z,13.16
2023-05-24T23:41:54.687Z,13.13
2023-05-24T23:46:59.840Z,13.07
2023-05-24T23:52:03.591Z,13.02
2023-05-24T23:57:08.231Z,12.96
